Nearby METAR Reports

 

KCPC - Whiteville, North Carolina, USA
Distance from station: NNE 17mi, 28km
Updated: 09/24/2017 9:40am
Clear
Clear
 Wind from NNE
Wind: NNE 6 mph , 9 km/h
Temperature: 75°F , 24°C
Dew Point: 68°F , 20°C
Humidity: 78%
Barometer: 30.04 inHg , 1017.3 hPa
Clouds: Clear
Visibility: 10 miles , 16 km
2017/09/24 13:40 KCPC 241340Z AUTO 03005KT 10SM CLR 24/20 A3004 RMK AO2 T02350198
KCRE - North Myrtle Bea, South Carolina, USA
Distance from station: SSE 19mi, 31km
Updated: 09/24/2017 8:53am
Clear
Clear
 Wind from NNE
Wind: NNE 9 mph , 15 km/h
Temperature: 72°F , 22°C
Dew Point: 68°F , 20°C
Humidity: 88%
Barometer: 30.01 inHg , 1016.3 hPa
Clouds: Clear
Visibility: 10 miles , 16 km
2017/09/24 12:53 KCRE 241253Z 03008KT 10SM CLR 22/20 A3001 RMK AO1 SLP164 T02220200
 
KHYW - Conway-Horry Cty, South Carolina, USA
Distance from station: SW 22mi, 35km
Updated: 09/24/2017 9:35am
Clear
Clear
 Wind from NE
Wind: NE 7 mph , 11 km/h
Temperature: 72°F , 22°C
Dew Point: 68°F , 20°C
Humidity: 88%
Barometer: 30.03 inHg , 1016.9 hPa
Clouds: Clear
Visibility: 7 miles , 11 km
2017/09/24 13:35 KHYW 241335Z AUTO 04006KT 7SM CLR 22/20 A3003 RMK AO2
KMAO - Marion, South Carolina, USA
Distance from station: WNW 28mi, 45km
Updated: 09/24/2017 9:55am
Clear
Clear
 Wind from NNE
Wind: NNE 10 mph , 17 km/h
Temperature: 72°F , 22°C
Dew Point: 66°F , 19°C
Humidity: 83%
Barometer: 30.05 inHg , 1017.6 hPa
Clouds: Clear
Visibility: 7 miles , 11 km
2017/09/24 13:55 KMAO 241355Z AUTO 03009KT 7SM CLR 22/19 A3005 RMK AO2
 
KMYR - Myrtle Beach, South Carolina, USA
Distance from station: S 28mi, 45km
Updated: 09/24/2017 8:56am
Clear
Clear
 Wind from NNE
Wind: NNE 10 mph , 17 km/h
Temperature: 73°F , 23°C
Dew Point: 68°F , 20°C
Humidity: 83%
Barometer: 30.03 inHg , 1016.9 hPa
Clouds: Clear
Visibility: 10 miles , 16 km
2017/09/24 12:56 KMYR 241256Z 03009KT 10SM CLR 23/20 A3003 RMK AO2 SLP169 T02280200
KLBT - Lumberton, North Carolina, USA
Distance from station: NNW 39mi, 62km
Updated: 09/23/2017 11:54am
NOT Current
Clear
Clear
 Wind from calm
Wind: Calm
Temperature: 84°F , 29°C
Heat Index: 86°F , 30°C
Dew Point: 66°F , 19°C
Humidity: 55%
Barometer: 30.04 inHg , 1017.3 hPa
Clouds: Clear
Visibility: 10 miles , 16 km
2017/09/23 15:54 KLBT 231554Z AUTO 00000KT 10SM CLR 29/19 A3004 RMK AO2 SLP169 T02940194 $
 
KSUT - Southport, North Carolina, USA
Distance from station: E 46mi, 74km
Updated: 09/24/2017 9:50am
Clear
Clear
 Wind from NNE
Wind: NNE 13 mph , 20 km/h, Gust: 16 mph , 26 km/h
Temperature: 77°F , 25°C
Dew Point: 68°F , 20°C
Humidity: 74%
Barometer: 30.01 inHg , 1016.3 hPa
Clouds: Clear
Visibility: 10 miles , 16 km
2017/09/24 13:50 KSUT 241350Z AUTO 02011G14KT 10SM CLR 25/20 A3001 RMK AO2 T02490200
KFLO - Florence, South Carolina, USA
Distance from station: W 50mi, 81km
Updated: 09/24/2017 8:53am
Clear
Clear
 Wind from NNE
Wind: NNE 6 mph , 9 km/h
Temperature: 72°F , 22°C
Dew Point: 66°F , 19°C
Humidity: 83%
Barometer: 30.05 inHg , 1017.6 hPa
Clouds: Clear
Visibility: 10 miles , 16 km
2017/09/24 12:53 KFLO 241253Z 03005KT 10SM CLR 22/19 A3005 RMK AO2 SLP174 T02170194